Milo, Kentucky
Current Conditions -  °F | °C
As of 3:35 AM on Sunday 26 Oct 2014 (Local Time) from KSJS Reporting Station
Clear Clear  
Wind Chill: 60°   Ceiling: Unl
Heat Index: 60°   Visibility: 10mi
Dew Point: 55°   Wind: 7mph
Humidity: 85%   Direction: 270°W
Pressure: 29.94"   Gusts: NA
Location:  37.8776°N, 82.5976°W
Report Text: KSJS 260735Z AUTO 27006KT 10SM CLR 16/13 A2994 RMK AO2 T01560130
Loading
Personal Weather Stations






























Interactive Weather Map
Tropical Storm Tracking
New forecast layout! Learn more

10-Day Weather Forecast

Advertisements
Track Severe Weather on mobile